createdAt,value
2023-02-20T00:02:00.445Z,1.99
2023-02-20T00:04:29.243Z,2.03
2023-02-20T00:07:00.221Z,2.06
2023-02-20T00:09:28.721Z,2.09
2023-02-20T00:11:57.541Z,2.11
2023-02-20T00:14:34.030Z,2.14
2023-02-20T00:17:04.031Z,2.17
2023-02-20T00:19:32.712Z,2.22
2023-02-20T00:22:01.914Z,2.27
2023-02-20T00:24:30.886Z,2.33
2023-02-20T00:26:59.686Z,2.38
2023-02-20T00:29:28.178Z,2.43
2023-02-20T00:31:58.529Z,2.48
2023-02-20T00:34:28.715Z,2.53
2023-02-20T00:36:57.607Z,2.56
2023-02-20T00:39:26.293Z,2.59
2023-02-20T00:41:56.688Z,2.60
2023-02-20T00:44:25.965Z,2.62
2023-02-20T00:46:55.848Z,2.65
2023-02-20T00:49:24.418Z,2.68
2023-02-20T00:51:54.299Z,2.71
2023-02-20T00:54:22.805Z,2.73
2023-02-20T00:56:50.996Z,2.76
2023-02-20T00:59:19.298Z,2.79
2023-02-20T01:01:49.135Z,2.82
2023-02-20T01:04:17.460Z,2.84
2023-02-20T01:06:45.742Z,2.85
2023-02-20T01:09:14.189Z,2.86
2023-02-20T01:11:45.037Z,2.85
2023-02-20T01:14:14.288Z,2.85
2023-02-20T01:16:51.644Z,2.84
2023-02-20T01:19:22.200Z,2.83
2023-02-20T01:21:51.599Z,2.83
2023-02-20T01:24:20.378Z,2.82
2023-02-20T01:26:50.384Z,2.81
2023-02-20T01:29:18.949Z,2.81
2023-02-20T01:31:51.871Z,2.81
2023-02-20T01:34:21.285Z,2.80
2023-02-20T01:36:51.873Z,2.80
2023-02-20T01:39:22.600Z,2.80
2023-02-20T01:41:54.445Z,2.79
2023-02-20T01:44:29.093Z,2.80
2023-02-20T01:46:59.082Z,2.81
2023-02-20T01:49:35.983Z,2.82
2023-02-20T01:52:15.734Z,2.85
2023-02-20T01:54:49.239Z,2.85
2023-02-20T01:57:22.521Z,2.86
2023-02-20T01:59:55.520Z,2.88
2023-02-20T02:02:26.564Z,2.89
2023-02-20T02:04:54.824Z,2.89
2023-02-20T02:07:24.466Z,2.90
2023-02-20T02:10:02.859Z,2.91
2023-02-20T02:12:31.752Z,2.91
2023-02-20T02:15:00.128Z,2.93
2023-02-20T02:17:37.097Z,2.94
2023-02-20T02:20:11.315Z,2.94
2023-02-20T02:22:58.141Z,2.95
2023-02-20T02:25:48.516Z,2.96
2023-02-20T02:28:22.542Z,2.96
2023-02-20T02:31:07.590Z,2.97
2023-02-20T02:34:07.006Z,2.98
2023-02-20T02:36:56.891Z,2.97
2023-02-20T02:39:48.615Z,2.96
2023-02-20T02:42:51.502Z,2.97
2023-02-20T02:45:28.946Z,2.97
2023-02-20T02:48:04.134Z,2.96
2023-02-20T02:50:36.762Z,2.97
2023-02-20T02:53:08.183Z,2.96
2023-02-20T02:55:36.855Z,2.97
2023-02-20T02:58:06.253Z,2.98
2023-02-20T03:00:45.823Z,3.00
2023-02-20T03:03:24.737Z,3.01
2023-02-20T03:06:06.495Z,3.02
2023-02-20T03:08:58.000Z,3.04
2023-02-20T03:11:29.329Z,3.05
2023-02-20T03:14:21.618Z,3.06
2023-02-20T03:17:07.613Z,3.07
2023-02-20T03:19:42.546Z,3.08
2023-02-20T03:22:26.590Z,3.09
2023-02-20T03:25:10.743Z,3.09
2023-02-20T03:28:14.285Z,3.11
2023-02-20T03:30:51.829Z,3.12
2023-02-20T03:33:44.381Z,3.13
2023-02-20T03:36:38.878Z,3.13
2023-02-20T03:39:31.754Z,3.13
2023-02-20T03:42:21.202Z,3.13
2023-02-20T03:44:53.496Z,3.12
2023-02-20T03:47:23.693Z,3.12
2023-02-20T03:49:54.942Z,3.12
2023-02-20T03:52:24.146Z,3.11
2023-02-20T03:54:53.335Z,3.12
2023-02-20T03:57:28.667Z,3.13
2023-02-20T04:00:10.371Z,3.14
2023-02-20T04:02:54.461Z,3.14
2023-02-20T04:05:28.545Z,3.16
2023-02-20T04:08:07.153Z,3.19
2023-02-20T04:10:52.823Z,3.21
2023-02-20T04:13:21.736Z,3.24
2023-02-20T04:15:50.920Z,3.26
2023-02-20T04:18:21.789Z,3.28
2023-02-20T04:20:54.354Z,3.30
2023-02-20T04:23:28.918Z,3.32
2023-02-20T04:26:06.975Z,3.35
2023-02-20T04:28:36.710Z,3.37
2023-02-20T04:31:07.017Z,3.39
2023-02-20T04:33:36.699Z,3.42
2023-02-20T04:36:10.102Z,3.44
2023-02-20T04:38:39.397Z,3.46
2023-02-20T04:41:09.314Z,3.48
2023-02-20T04:43:37.595Z,3.50
2023-02-20T04:46:07.002Z,3.52
2023-02-20T04:48:35.890Z,3.54
2023-02-20T04:51:04.355Z,3.57
2023-02-20T04:53:33.874Z,3.59
2023-02-20T04:56:02.144Z,3.63
2023-02-20T04:58:30.820Z,3.66
2023-02-20T05:01:05.298Z,3.70
2023-02-20T05:03:33.861Z,3.74
2023-02-20T05:06:02.228Z,3.78
2023-02-20T05:08:32.259Z,3.84
2023-02-20T05:11:00.520Z,3.88
2023-02-20T05:13:28.696Z,3.93
2023-02-20T05:15:56.908Z,3.97
2023-02-20T05:18:27.152Z,4.01
2023-02-20T05:21:14.619Z,4.04
2023-02-20T05:23:43.303Z,4.08
2023-02-20T05:26:13.470Z,4.11
2023-02-20T05:28:41.993Z,4.13
2023-02-20T05:31:10.340Z,4.16
2023-02-20T05:33:39.474Z,4.16
2023-02-20T05:36:08.218Z,4.16
2023-02-20T05:38:36.433Z,4.16
2023-02-20T05:41:06.065Z,4.17
2023-02-20T05:43:34.313Z,4.16
2023-02-20T05:46:02.615Z,4.16
2023-02-20T05:48:30.764Z,4.16
2023-02-20T05:50:58.946Z,4.15
2023-02-20T05:53:31.406Z,4.15
2023-02-20T05:55:59.695Z,4.16
2023-02-20T05:58:27.977Z,4.18
2023-02-20T06:00:56.077Z,4.19
2023-02-20T06:03:24.524Z,4.21
2023-02-20T06:05:52.906Z,4.23
2023-02-20T06:08:21.288Z,4.26
2023-02-20T06:10:49.660Z,4.28
2023-02-20T06:13:17.933Z,4.31
2023-02-20T06:15:46.203Z,4.33
2023-02-20T06:18:14.511Z,4.35
2023-02-20T06:20:42.759Z,4.37
2023-02-20T06:23:11.046Z,4.39
2023-02-20T06:25:39.412Z,4.42
2023-02-20T06:28:07.911Z,4.44
2023-02-20T06:30:36.294Z,4.46
2023-02-20T06:33:04.664Z,4.48
2023-02-20T06:35:33.460Z,4.50
2023-02-20T06:38:02.150Z,4.52
2023-02-20T06:40:30.427Z,4.53
2023-02-20T06:42:58.799Z,4.56
2023-02-20T06:45:27.365Z,4.59
2023-02-20T06:47:55.752Z,4.62
2023-02-20T06:50:24.259Z,4.67
2023-02-20T06:52:52.624Z,4.71
2023-02-20T06:55:21.310Z,4.75
2023-02-20T06:57:50.588Z,4.80
2023-02-20T07:00:19.702Z,4.84
2023-02-20T07:02:48.080Z,4.89
2023-02-20T07:05:16.564Z,4.93
2023-02-20T07:07:44.930Z,4.98
2023-02-20T07:10:14.244Z,5.03
2023-02-20T07:12:42.925Z,5.07
2023-02-20T07:15:12.494Z,5.12
2023-02-20T07:17:40.803Z,5.17
2023-02-20T07:20:10.683Z,5.23
2023-02-20T07:22:39.098Z,5.28
2023-02-20T07:25:07.881Z,5.33
2023-02-20T07:27:36.164Z,5.38
2023-02-20T07:30:06.353Z,5.42
2023-02-20T07:32:35.012Z,5.46
2023-02-20T07:35:08.127Z,5.51
2023-02-20T07:37:37.986Z,5.56
2023-02-20T07:40:07.432Z,5.61
2023-02-20T07:42:35.957Z,5.68
2023-02-20T07:45:24.910Z,5.76
2023-02-20T07:47:53.607Z,5.83
2023-02-20T07:50:22.393Z,5.90
2023-02-20T07:52:50.992Z,5.96
2023-02-20T07:55:20.221Z,6.03
2023-02-20T07:57:51.517Z,6.09
2023-02-20T08:00:21.046Z,6.15
2023-02-20T08:02:49.510Z,6.22
2023-02-20T08:05:18.694Z,6.28
2023-02-20T08:07:49.356Z,6.35
2023-02-20T08:10:20.704Z,6.42
2023-02-20T08:12:50.089Z,6.47
2023-02-20T08:15:19.985Z,6.53
2023-02-20T08:17:50.878Z,6.61
2023-02-20T08:20:21.682Z,6.65
2023-02-20T08:22:51.732Z,6.71
2023-02-20T08:25:20.796Z,6.77
2023-02-20T08:27:50.435Z,6.82
2023-02-20T08:30:25.899Z,6.87
2023-02-20T08:32:55.584Z,6.91
2023-02-20T08:35:25.304Z,6.96
2023-02-20T08:37:53.853Z,7.02
2023-02-20T08:40:22.656Z,7.07
2023-02-20T08:42:51.740Z,7.11
2023-02-20T08:45:20.629Z,7.17
2023-02-20T08:47:49.916Z,7.24
2023-02-20T08:50:19.324Z,7.32
2023-02-20T08:52:48.595Z,7.40
2023-02-20T08:55:17.540Z,7.50
2023-02-20T08:57:46.103Z,7.60
2023-02-20T09:00:17.845Z,7.69
2023-02-20T09:02:49.866Z,7.77
2023-02-20T09:05:18.723Z,7.82
2023-02-20T09:07:47.082Z,7.88
2023-02-20T09:10:16.097Z,7.95
2023-02-20T09:12:44.468Z,8.01
2023-02-20T09:15:18.276Z,8.07
2023-02-20T09:17:51.428Z,8.12
2023-02-20T09:20:22.517Z,8.20
2023-02-20T09:22:51.613Z,8.28
2023-02-20T09:25:20.194Z,8.36
2023-02-20T09:27:48.668Z,8.45
2023-02-20T09:30:21.374Z,8.54
2023-02-20T09:32:50.743Z,8.63
2023-02-20T09:35:23.744Z,8.71
2023-02-20T09:37:53.230Z,8.81
2023-02-20T09:40:26.539Z,8.88
2023-02-20T09:43:03.911Z,8.95
2023-02-20T09:45:34.381Z,8.99
2023-02-20T09:48:23.223Z,9.03
2023-02-20T09:51:00.205Z,9.08
2023-02-20T09:53:37.795Z,9.13
2023-02-20T09:56:13.409Z,9.18
2023-02-20T09:58:49.606Z,9.23
2023-02-20T10:01:22.576Z,9.29
2023-02-20T10:04:01.210Z,9.35
2023-02-20T10:06:33.764Z,9.41
2023-02-20T10:09:04.971Z,9.48
2023-02-20T10:12:18.597Z,9.55
2023-02-20T10:15:21.142Z,9.59
2023-02-20T10:18:08.157Z,9.66
2023-02-20T10:20:51.074Z,9.76
2023-02-20T10:23:45.625Z,9.86
2023-02-20T10:26:27.150Z,9.97
2023-02-20T10:28:59.620Z,10.09
2023-02-20T10:31:48.973Z,10.21
2023-02-20T10:34:52.096Z,10.33
2023-02-20T10:37:28.032Z,10.44
2023-02-20T10:40:14.766Z,10.52
2023-02-20T10:43:13.675Z,10.60
2023-02-20T10:46:03.776Z,10.70
2023-02-20T10:48:34.790Z,10.82
2023-02-20T10:51:12.688Z,10.94
2023-02-20T10:54:01.738Z,11.04
2023-02-20T10:56:42.239Z,11.10
2023-02-20T10:59:19.354Z,11.15
2023-02-20T11:01:52.271Z,11.20
2023-02-20T11:04:22.602Z,11.26
2023-02-20T11:07:02.869Z,11.33
2023-02-20T11:09:31.455Z,11.41
2023-02-20T11:12:02.017Z,11.48
2023-02-20T11:14:40.337Z,11.56
2023-02-20T11:17:16.725Z,11.62
2023-02-20T11:19:56.436Z,11.69
2023-02-20T11:22:40.233Z,11.73
2023-02-20T11:25:15.271Z,11.75
2023-02-20T11:27:47.041Z,11.75
2023-02-20T11:30:32.747Z,11.75
2023-02-20T11:33:25.834Z,11.78
2023-02-20T11:36:08.995Z,11.80
2023-02-20T11:38:38.142Z,11.81
2023-02-20T11:41:30.036Z,11.84
2023-02-20T11:44:10.699Z,11.86
2023-02-20T11:46:39.993Z,11.88
2023-02-20T11:49:29.324Z,11.89
2023-02-20T11:52:17.303Z,11.92
2023-02-20T11:54:47.514Z,11.97
2023-02-20T11:57:16.313Z,11.97
2023-02-20T11:59:48.896Z,11.97
2023-02-20T12:02:20.106Z,11.98
2023-02-20T12:05:13.109Z,12.00
2023-02-20T12:07:53.648Z,12.04
2023-02-20T12:10:43.777Z,12.09
2023-02-20T12:13:17.774Z,12.13
2023-02-20T12:16:13.872Z,12.15
2023-02-20T12:19:09.503Z,12.18
2023-02-20T12:22:04.946Z,12.24
2023-02-20T12:24:45.993Z,12.32
2023-02-20T12:27:40.274Z,12.38
2023-02-20T12:30:17.588Z,12.41
2023-02-20T12:32:55.598Z,12.41
2023-02-20T12:35:32.762Z,12.39
2023-02-20T12:38:31.886Z,12.33
2023-02-20T12:41:25.413Z,12.29
2023-02-20T12:44:28.725Z,12.23
2023-02-20T12:47:15.320Z,12.19
2023-02-20T12:50:14.011Z,12.15
2023-02-20T12:53:19.604Z,12.11
2023-02-20T12:56:14.044Z,12.10
2023-02-20T12:58:55.861Z,12.09
2023-02-20T13:01:38.009Z,12.10
2023-02-20T13:04:33.066Z,12.10
2023-02-20T13:07:14.181Z,12.11
2023-02-20T13:10:02.886Z,12.11
2023-02-20T13:12:31.469Z,12.14
2023-02-20T13:15:28.124Z,12.17
2023-02-20T13:18:21.694Z,12.23
2023-02-20T13:20:57.642Z,12.30
2023-02-20T13:23:30.119Z,12.39
2023-02-20T13:25:59.010Z,12.47
2023-02-20T13:28:35.167Z,12.57
2023-02-20T13:31:09.492Z,12.67
2023-02-20T13:33:40.458Z,12.76
2023-02-20T13:36:27.141Z,12.84
2023-02-20T13:39:20.624Z,12.92
2023-02-20T13:41:55.227Z,12.96
2023-02-20T13:44:36.015Z,12.97
2023-02-20T13:47:05.812Z,13.01
2023-02-20T13:49:46.461Z,13.04
2023-02-20T13:52:49.060Z,13.07
2023-02-20T13:55:26.733Z,13.09
2023-02-20T13:58:07.213Z,13.04
2023-02-20T14:00:55.395Z,13.01
2023-02-20T14:03:32.430Z,13.02
2023-02-20T14:06:18.563Z,12.99
2023-02-20T14:08:49.262Z,12.93
2023-02-20T14:11:31.881Z,12.91
2023-02-20T14:14:10.998Z,12.87
2023-02-20T14:16:46.354Z,12.85
2023-02-20T14:19:17.397Z,12.77
2023-02-20T14:21:46.066Z,12.69
2023-02-20T14:24:21.412Z,12.63
2023-02-20T14:26:56.374Z,12.58
2023-02-20T14:29:28.467Z,12.55
2023-02-20T14:31:58.791Z,12.51
2023-02-20T14:34:54.745Z,12.49
2023-02-20T14:37:49.364Z,12.46
2023-02-20T14:40:24.814Z,12.46
2023-02-20T14:43:02.105Z,12.45
2023-02-20T14:45:31.295Z,12.42
2023-02-20T14:48:01.515Z,12.39
2023-02-20T14:50:37.152Z,12.35
2023-02-20T14:53:14.866Z,12.31
2023-02-20T14:55:44.492Z,12.30
2023-02-20T14:58:23.660Z,12.27
2023-02-20T15:00:56.533Z,12.25
2023-02-20T15:03:31.716Z,12.24
2023-02-20T15:06:06.456Z,12.22
2023-02-20T15:08:38.055Z,12.19
2023-02-20T15:11:10.619Z,12.20
2023-02-20T15:13:42.808Z,12.20
2023-02-20T15:16:11.405Z,12.18
2023-02-20T15:18:43.511Z,12.17
2023-02-20T15:21:29.901Z,12.18
2023-02-20T15:24:35.153Z,12.20
2023-02-20T15:27:10.158Z,12.23
2023-02-20T15:29:39.876Z,12.30
2023-02-20T15:32:20.898Z,12.38
2023-02-20T15:34:54.992Z,12.43
2023-02-20T15:37:38.718Z,12.47
2023-02-20T15:40:26.906Z,12.51
2023-02-20T15:43:04.486Z,12.56
2023-02-20T15:45:39.387Z,12.58
2023-02-20T15:48:10.709Z,12.61
2023-02-20T15:50:39.637Z,12.61
2023-02-20T15:53:10.966Z,12.60
2023-02-20T15:55:39.962Z,12.57
2023-02-20T15:58:42.646Z,12.52
2023-02-20T16:01:12.511Z,12.50
2023-02-20T16:03:51.540Z,12.46
2023-02-20T16:06:22.717Z,12.40
2023-02-20T16:08:52.725Z,12.37
2023-02-20T16:11:24.899Z,12.39
2023-02-20T16:14:00.283Z,12.34
2023-02-20T16:16:41.374Z,12.31
2023-02-20T16:19:17.085Z,12.26
2023-02-20T16:21:58.152Z,12.25
2023-02-20T16:24:27.970Z,12.25
2023-02-20T16:26:56.832Z,12.24
2023-02-20T16:29:32.984Z,12.22
2023-02-20T16:32:02.099Z,12.23
2023-02-20T16:34:33.190Z,12.24
2023-02-20T16:37:03.685Z,12.24
2023-02-20T16:39:32.361Z,12.20
2023-02-20T16:42:03.225Z,12.17
2023-02-20T16:44:39.009Z,12.12
2023-02-20T16:47:12.242Z,12.02
2023-02-20T16:49:41.109Z,11.97
2023-02-20T16:52:25.263Z,11.91
2023-02-20T16:54:55.949Z,11.85
2023-02-20T16:57:25.806Z,11.82
2023-02-20T16:59:57.653Z,11.80
2023-02-20T17:02:31.229Z,11.76
2023-02-20T17:05:02.455Z,11.69
2023-02-20T17:07:32.043Z,11.61
2023-02-20T17:10:01.430Z,11.53
2023-02-20T17:12:31.420Z,11.47
2023-02-20T17:15:01.854Z,11.43
2023-02-20T17:17:30.877Z,11.43
2023-02-20T17:20:01.239Z,11.42
2023-02-20T17:22:30.598Z,11.40
2023-02-20T17:24:59.609Z,11.41
2023-02-20T17:27:28.404Z,11.39
2023-02-20T17:29:58.775Z,11.37
2023-02-20T17:32:28.585Z,11.32
2023-02-20T17:35:05.452Z,11.29
2023-02-20T17:37:36.285Z,11.23
2023-02-20T17:40:07.448Z,11.15
2023-02-20T17:42:37.587Z,11.10
2023-02-20T17:45:07.618Z,11.07
2023-02-20T17:47:38.468Z,11.02
2023-02-20T17:50:08.017Z,10.96
2023-02-20T17:52:38.246Z,10.91
2023-02-20T17:55:08.455Z,10.85
2023-02-20T17:57:40.428Z,10.81
2023-02-20T18:00:10.126Z,10.77
2023-02-20T18:02:38.819Z,10.75
2023-02-20T18:05:08.216Z,10.72
2023-02-20T18:07:36.890Z,10.73
2023-02-20T18:10:06.253Z,10.70
2023-02-20T18:12:35.090Z,10.66
2023-02-20T18:15:04.596Z,10.63
2023-02-20T18:17:34.223Z,10.58
2023-02-20T18:20:03.293Z,10.55
2023-02-20T18:22:32.091Z,10.52
2023-02-20T18:25:01.502Z,10.52
2023-02-20T18:27:29.971Z,10.51
2023-02-20T18:29:58.654Z,10.47
2023-02-20T18:32:27.632Z,10.41
2023-02-20T18:34:56.861Z,10.36
2023-02-20T18:37:26.136Z,10.33
2023-02-20T18:39:56.066Z,10.30
2023-02-20T18:42:25.475Z,10.27
2023-02-20T18:44:55.597Z,10.24
2023-02-20T18:47:25.628Z,10.20
2023-02-20T18:49:54.399Z,10.18
2023-02-20T18:52:25.092Z,10.14
2023-02-20T18:54:56.934Z,10.14
2023-02-20T18:57:28.229Z,10.11
2023-02-20T18:59:58.353Z,10.09
2023-02-20T19:02:27.947Z,10.11
2023-02-20T19:04:59.158Z,10.09
2023-02-20T19:07:30.818Z,10.08
2023-02-20T19:10:01.007Z,10.08
2023-02-20T19:12:31.349Z,10.08
2023-02-20T19:15:01.315Z,10.09
2023-02-20T19:17:32.572Z,10.10
2023-02-20T19:20:05.678Z,10.08
2023-02-20T19:22:36.308Z,10.04
2023-02-20T19:25:08.139Z,10.05
2023-02-20T19:27:39.753Z,10.05
2023-02-20T19:30:11.449Z,10.06
2023-02-20T19:32:42.584Z,10.07
2023-02-20T19:35:13.544Z,10.05
2023-02-20T19:37:43.953Z,10.07
2023-02-20T19:40:14.422Z,10.09
2023-02-20T19:42:44.277Z,10.08
2023-02-20T19:45:15.321Z,10.09
2023-02-20T19:47:46.705Z,10.08
2023-02-20T19:50:16.691Z,10.08
2023-02-20T19:52:46.491Z,10.08
2023-02-20T19:55:22.042Z,10.08
2023-02-20T19:57:52.517Z,10.08
2023-02-20T20:00:23.369Z,10.10
2023-02-20T20:02:53.487Z,10.10
2023-02-20T20:05:24.794Z,10.10
2023-02-20T20:07:55.091Z,10.11
2023-02-20T20:10:25.716Z,10.12
2023-02-20T20:12:55.752Z,10.12
2023-02-20T20:15:27.135Z,10.11
2023-02-20T20:18:00.400Z,10.13
2023-02-20T20:20:33.160Z,10.12
2023-02-20T20:23:06.140Z,10.13
2023-02-20T20:25:36.024Z,10.17
2023-02-20T20:28:07.658Z,10.18
2023-02-20T20:30:42.051Z,10.19
2023-02-20T20:33:12.122Z,10.22
2023-02-20T20:35:41.293Z,10.23
2023-02-20T20:38:10.905Z,10.27
2023-02-20T20:40:41.324Z,10.27
2023-02-20T20:43:13.707Z,10.27
2023-02-20T20:45:44.655Z,10.25
2023-02-20T20:48:14.973Z,10.23
2023-02-20T20:50:44.476Z,10.24
2023-02-20T20:53:13.978Z,10.27
2023-02-20T20:55:43.604Z,10.28
2023-02-20T20:58:12.684Z,10.31
2023-02-20T21:00:42.488Z,10.34
2023-02-20T21:03:11.910Z,10.33
2023-02-20T21:05:41.055Z,10.35
2023-02-20T21:08:10.724Z,10.33
2023-02-20T21:10:40.305Z,10.32
2023-02-20T21:13:09.245Z,10.29
2023-02-20T21:15:39.362Z,10.29
2023-02-20T21:18:09.491Z,10.32
2023-02-20T21:20:39.992Z,10.34
2023-02-20T21:23:11.264Z,10.38
2023-02-20T21:25:42.689Z,10.39
2023-02-20T21:28:11.981Z,10.39
2023-02-20T21:30:42.945Z,10.38
2023-02-20T21:33:12.210Z,10.35
2023-02-20T21:35:41.844Z,10.35
2023-02-20T21:38:14.215Z,10.31
2023-02-20T21:40:43.592Z,10.28
2023-02-20T21:43:31.723Z,10.24
2023-02-20T21:46:02.193Z,10.20
2023-02-20T21:48:32.788Z,10.20
2023-02-20T21:51:02.943Z,10.18
2023-02-20T21:53:32.407Z,10.18
2023-02-20T21:56:02.530Z,10.19
2023-02-20T21:58:51.090Z,10.17
2023-02-20T22:01:20.029Z,10.19
2023-02-20T22:03:52.079Z,10.19
2023-02-20T22:06:21.227Z,10.20
2023-02-20T22:09:08.661Z,10.19
2023-02-20T22:11:56.190Z,10.21
2023-02-20T22:14:43.916Z,10.26
2023-02-20T22:17:31.232Z,10.26
2023-02-20T22:20:18.966Z,10.27
2023-02-20T22:23:06.509Z,10.26
2023-02-20T22:25:54.864Z,10.25
2023-02-20T22:28:42.399Z,10.25
2023-02-20T22:31:29.824Z,10.23
2023-02-20T22:34:17.145Z,10.24
2023-02-20T22:37:08.032Z,10.23
2023-02-20T22:39:55.378Z,10.19
2023-02-20T22:42:43.203Z,10.18
2023-02-20T22:45:30.658Z,10.19
2023-02-20T22:48:17.741Z,10.20
2023-02-20T22:51:06.431Z,10.21
2023-02-20T22:53:53.516Z,10.22
2023-02-20T22:56:42.164Z,10.22
2023-02-20T22:59:29.698Z,10.20
2023-02-20T23:02:16.962Z,10.22
2023-02-20T23:05:07.726Z,10.23
2023-02-20T23:07:55.995Z,10.22
2023-02-20T23:10:43.599Z,10.20
2023-02-20T23:13:30.818Z,10.19
2023-02-20T23:16:17.994Z,10.17
2023-02-20T23:19:04.872Z,10.18
2023-02-20T23:21:55.150Z,10.17
2023-02-20T23:24:42.046Z,10.15
2023-02-20T23:27:29.063Z,10.14
2023-02-20T23:30:16.580Z,10.11
2023-02-20T23:33:03.725Z,10.11
2023-02-20T23:35:50.828Z,10.08
2023-02-20T23:38:37.736Z,10.11
2023-02-20T23:41:27.207Z,10.12
2023-02-20T23:44:14.018Z,10.12
2023-02-20T23:47:05.956Z,10.09
2023-02-20T23:49:53.067Z,10.06
2023-02-20T23:52:40.099Z,10.05
2023-02-20T23:55:27.216Z,10.03
2023-02-20T23:58:14.346Z,10.01
